createdAt,value
2018-07-28T00:00:41.375Z,26.3
2018-07-28T00:01:31.716Z,26.3
2018-07-28T00:02:21.757Z,26.3
2018-07-28T00:03:11.576Z,26.3
2018-07-28T00:04:01.614Z,26.3
2018-07-28T00:04:51.952Z,26.2
2018-07-28T00:05:42.007Z,26.3
2018-07-28T00:06:32.069Z,26.3
2018-07-28T00:07:22.134Z,26.3
2018-07-28T00:08:12.176Z,26.2
2018-07-28T00:09:01.457Z,26.2
2018-07-28T00:09:51.892Z,26.2
2018-07-28T00:10:42.028Z,26.2
2018-07-28T00:11:31.998Z,26.2
2018-07-28T00:12:22.030Z,26.2
2018-07-28T00:13:11.997Z,26.2
2018-07-28T00:14:02.620Z,26.2
2018-07-28T00:14:52.400Z,26.2
2018-07-28T00:15:42.772Z,26.2
2018-07-28T00:16:32.546Z,26.2
2018-07-28T00:17:22.859Z,26.2
2018-07-28T00:18:12.684Z,26.2
2018-07-28T00:19:03.036Z,26.2
2018-07-28T00:19:53.080Z,26.2
2018-07-28T00:20:42.850Z,26.2
2018-07-28T00:21:33.211Z,26.2
2018-07-28T00:22:23.282Z,26.2
2018-07-28T00:23:13.337Z,26.2
2018-07-28T00:24:02.871Z,26.2
2018-07-28T00:24:53.181Z,26.2
2018-07-28T00:25:43.563Z,26.2
2018-07-28T00:26:33.386Z,26.2
2018-07-28T00:27:23.672Z,26.2
2018-07-28T00:28:13.868Z,26.1
2018-07-28T00:29:03.626Z,26.2
2018-07-28T00:29:53.865Z,26.2
2018-07-28T00:30:43.772Z,26.1
2018-07-28T00:31:33.987Z,26.2
2018-07-28T00:32:24.077Z,26.1
2018-07-28T00:33:14.149Z,26.2
2018-07-28T00:34:04.240Z,26.1
2018-07-28T00:34:54.276Z,26.1
2018-07-28T00:35:44.325Z,26.1
2018-07-28T00:36:33.543Z,26.1
2018-07-28T00:37:24.180Z,26.1
2018-07-28T00:38:14.245Z,26.1
2018-07-28T00:39:04.310Z,26.1
2018-07-28T00:39:54.368Z,26.1
2018-07-28T00:40:44.443Z,26.1
2018-07-28T00:41:34.795Z,26.1
2018-07-28T00:42:24.859Z,26.1
2018-07-28T00:43:14.617Z,26.1
2018-07-28T00:44:05.013Z,26.1
2018-07-28T00:44:54.514Z,26.1
2018-07-28T00:45:45.083Z,26.1
2018-07-28T00:46:35.148Z,26.1
2018-07-28T00:47:24.966Z,26.1
2018-07-28T00:48:14.991Z,26.1
2018-07-28T00:49:05.092Z,26.1
2018-07-28T00:49:55.385Z,26.1
2018-07-28T00:50:45.168Z,26.1
2018-07-28T00:51:35.592Z,26.1
2018-07-28T00:52:25.297Z,26.1
2018-07-28T00:53:15.367Z,26.1
2018-07-28T00:54:05.429Z,26.1
2018-07-28T00:54:55.799Z,26.1
2018-07-28T00:55:45.272Z,26.1
2018-07-28T00:56:35.639Z,26.1
2018-07-28T00:57:24.854Z,26.1
2018-07-28T00:58:15.754Z,26.1
2018-07-28T00:59:05.815Z,26.1
2018-07-28T00:59:55.614Z,26.1
2018-07-28T01:00:46.246Z,26.1
2018-07-28T01:01:36.290Z,26.1
2018-07-28T01:02:26.161Z,26.1
2018-07-28T01:03:16.453Z,26.1
2018-07-28T01:04:05.951Z,26.1
2018-07-28T01:04:56.309Z,26.1
2018-07-28T01:05:46.635Z,26.1
2018-07-28T01:06:36.448Z,26.1
2018-07-28T01:07:26.798Z,26.1
2018-07-28T01:08:16.289Z,26
2018-07-28T01:09:06.623Z,26.1
2018-07-28T01:09:56.980Z,26.1
2018-07-28T01:10:46.773Z,26.1
2018-07-28T01:11:37.071Z,26
2018-07-28T01:12:27.160Z,26.1
2018-07-28T01:13:17.227Z,26
2018-07-28T01:14:07.288Z,26.1
2018-07-28T01:14:56.870Z,26.1
2018-07-28T01:15:46.661Z,26.1
2018-07-28T01:16:36.797Z,26
2018-07-28T01:17:26.510Z,26
2018-07-28T01:18:17.110Z,26.1
2018-07-28T01:19:07.687Z,26
2018-07-28T01:19:57.750Z,26.1
2018-07-28T01:20:47.516Z,26
2018-07-28T01:21:37.066Z,26.1
2018-07-28T01:22:27.920Z,26
2018-07-28T01:23:17.771Z,26.1
2018-07-28T01:24:07.766Z,26
2018-07-28T01:24:57.811Z,26.1
2018-07-28T01:25:48.144Z,26
2018-07-28T01:26:37.976Z,26
2018-07-28T01:27:28.292Z,26
2018-07-28T01:28:18.378Z,26
2018-07-28T01:29:08.145Z,26
2018-07-28T01:29:58.463Z,26
2018-07-28T01:30:48.253Z,26
2018-07-28T01:31:38.603Z,26
2018-07-28T01:32:28.385Z,26
2018-07-28T01:33:18.729Z,26
2018-07-28T01:34:08.494Z,26
2018-07-28T01:34:58.588Z,26
2018-07-28T01:35:48.366Z,26
2018-07-28T01:36:38.983Z,26
2018-07-28T01:37:28.515Z,26
2018-07-28T01:38:19.145Z,26
2018-07-28T01:39:09.313Z,25.9
2018-07-28T01:39:58.993Z,26
2018-07-28T01:40:49.328Z,26
2018-07-28T01:41:39.377Z,25.9
2018-07-28T01:42:29.195Z,26
2018-07-28T01:43:19.238Z,26
2018-07-28T01:44:09.619Z,25.9
2018-07-28T01:44:59.664Z,26
2018-07-28T01:45:49.490Z,26
2018-07-28T01:46:39.223Z,26
2018-07-28T01:47:29.831Z,25.9
2018-07-28T01:48:19.918Z,25.9
2018-07-28T01:49:09.675Z,25.9
2018-07-28T01:50:00.124Z,26
2018-07-28T01:50:50.085Z,26
2018-07-28T01:51:40.190Z,26
2018-07-28T01:52:29.977Z,25.9
2018-07-28T01:53:20.325Z,25.9
2018-07-28T01:54:10.370Z,25.9
2018-07-28T01:55:00.423Z,25.9
2018-07-28T01:55:50.181Z,25.9
2018-07-28T01:56:40.246Z,25.9
2018-07-28T01:57:30.309Z,25.9
2018-07-28T01:58:20.066Z,25.9
2018-07-28T01:59:10.724Z,25.9
2018-07-28T02:00:00.805Z,25.9
2018-07-28T02:00:50.548Z,25.9
2018-07-28T02:01:40.650Z,25.9
2018-07-28T02:02:30.983Z,25.9
2018-07-28T02:03:20.567Z,25.9
2018-07-28T02:04:10.829Z,25.9
2018-07-28T02:05:00.117Z,25.9
2018-07-28T02:05:50.768Z,25.9
2018-07-28T02:06:40.814Z,25.9
2018-07-28T02:07:31.389Z,25.9
2018-07-28T02:08:21.152Z,25.9
2018-07-28T02:09:11.524Z,25.9
2018-07-28T02:10:01.546Z,25.9
2018-07-28T02:10:51.324Z,25.9
2018-07-28T02:11:41.398Z,25.9
2018-07-28T02:12:31.231Z,25.9
2018-07-28T02:13:21.504Z,25.9
2018-07-28T02:14:11.368Z,25.9
2018-07-28T02:15:01.393Z,25.9
2018-07-28T02:15:52.047Z,25.9
2018-07-28T02:16:42.113Z,25.9
2018-07-28T02:17:31.629Z,25.9
2018-07-28T02:18:21.944Z,25.9
2018-07-28T02:19:12.035Z,25.9
2018-07-28T02:20:01.772Z,25.9
2018-07-28T02:20:52.146Z,25.9
2018-07-28T02:21:42.205Z,25.9
2018-07-28T02:22:32.553Z,25.9
2018-07-28T02:23:22.589Z,25.9
2018-07-28T02:24:12.383Z,25.9
2018-07-28T02:25:02.437Z,25.9
2018-07-28T02:25:52.230Z,25.9
2018-07-28T02:26:42.882Z,25.9
2018-07-28T02:27:32.939Z,25.9
2018-07-28T02:28:22.707Z,25.9
2018-07-28T02:29:13.087Z,25.9
2018-07-28T02:30:03.146Z,25.9
2018-07-28T02:30:52.626Z,25.9
2018-07-28T02:31:42.959Z,25.9
2018-07-28T02:32:33.095Z,25.9
2018-07-28T02:33:22.821Z,25.9
2018-07-28T02:34:12.885Z,25.9
2018-07-28T02:35:03.584Z,25.9
2018-07-28T02:35:53.529Z,25.9
2018-07-28T02:36:43.603Z,25.9
2018-07-28T02:37:33.687Z,25.9
2018-07-28T02:38:23.467Z,25.9
2018-07-28T02:39:13.845Z,25.9
2018-07-28T02:40:03.048Z,25.9
2018-07-28T02:40:53.381Z,25.9
2018-07-28T02:41:44.007Z,25.9
2018-07-28T02:42:33.219Z,25.9
2018-07-28T02:43:23.859Z,25.9
2018-07-28T02:44:14.198Z,25.9
2018-07-28T02:45:04.263Z,25.9
2018-07-28T02:45:54.043Z,25.9
2018-07-28T02:46:44.384Z,25.9
2018-07-28T02:47:34.179Z,25.9
2018-07-28T02:48:24.229Z,25.9
2018-07-28T02:49:14.564Z,25.9
2018-07-28T02:50:04.431Z,25.9
2018-07-28T02:50:54.774Z,25.9
2018-07-28T02:51:43.967Z,25.9
2018-07-28T02:52:34.599Z,25.9
2018-07-28T02:53:24.621Z,25.9
2018-07-28T02:54:14.972Z,25.9
2018-07-28T02:55:04.800Z,25.9
2018-07-28T02:55:55.172Z,25.8
2018-07-28T02:56:45.170Z,25.9
2018-07-28T02:57:35.252Z,25.9
2018-07-28T02:58:25.324Z,25.8
2018-07-28T02:59:15.358Z,25.8
2018-07-28T03:00:04.924Z,25.8
2018-07-28T03:00:55.251Z,25.8
2018-07-28T03:01:45.282Z,25.9
2018-07-28T03:02:35.662Z,25.8
2018-07-28T03:03:25.689Z,25.8
2018-07-28T03:04:15.465Z,25.8
2018-07-28T03:05:05.863Z,25.8
2018-07-28T03:05:55.893Z,25.8
2018-07-28T03:06:45.673Z,25.8
2018-07-28T03:07:35.409Z,25.8
2018-07-28T03:08:26.208Z,25.8
2018-07-28T03:09:15.850Z,25.8
2018-07-28T03:10:06.197Z,25.8
2018-07-28T03:10:56.229Z,25.8
2018-07-28T03:11:46.034Z,25.8
2018-07-28T03:12:36.375Z,25.8
2018-07-28T03:13:26.419Z,25.8
2018-07-28T03:14:16.247Z,25.8
2018-07-28T03:15:06.609Z,25.8
2018-07-28T03:15:56.052Z,25.8
2018-07-28T03:16:46.424Z,25.8
2018-07-28T03:17:36.517Z,25.8
2018-07-28T03:18:26.948Z,25.8
2018-07-28T03:19:16.903Z,25.8
2018-07-28T03:20:06.952Z,25.8
2018-07-28T03:20:56.496Z,25.8
2018-07-28T03:21:46.828Z,25.8
2018-07-28T03:22:37.120Z,25.8
2018-07-28T03:23:26.642Z,25.8
2018-07-28T03:24:16.986Z,25.8
2018-07-28T03:25:07.117Z,25.8
2018-07-28T03:25:57.163Z,25.8
2018-07-28T03:26:47.513Z,25.8
2018-07-28T03:27:37.247Z,25.8
2018-07-28T03:28:27.650Z,25.8
2018-07-28T03:29:17.721Z,25.8
2018-07-28T03:30:07.485Z,25.8
2018-07-28T03:30:57.354Z,25.8
2018-07-28T03:31:47.879Z,25.8
2018-07-28T03:32:37.694Z,25.8
2018-07-28T03:33:27.698Z,25.8
2018-07-28T03:34:17.788Z,25.8
2018-07-28T03:35:07.548Z,25.8
2018-07-28T03:35:58.169Z,25.8
2018-07-28T03:36:48.014Z,25.8
2018-07-28T03:37:38.052Z,25.8
2018-07-28T03:38:28.077Z,25.8
2018-07-28T03:39:18.163Z,25.8
2018-07-28T03:40:08.491Z,25.8
2018-07-28T03:40:57.989Z,25.8
2018-07-28T03:41:48.321Z,25.8
2018-07-28T03:42:38.149Z,25.8
2018-07-28T03:43:28.436Z,25.8
2018-07-28T03:44:18.832Z,25.8
2018-07-28T03:45:08.582Z,25.8
2018-07-28T03:45:58.068Z,25.8
2018-07-28T03:46:48.748Z,25.8
2018-07-28T03:47:39.046Z,25.8
2018-07-28T03:48:28.860Z,25.8
2018-07-28T03:49:19.914Z,25.8
2018-07-28T03:50:09.290Z,25.8
2018-07-28T03:50:59.353Z,25.8
2018-07-28T03:51:49.113Z,25.8
2018-07-28T03:52:39.454Z,25.8
2018-07-28T03:53:29.533Z,25.8
2018-07-28T03:54:19.583Z,25.8
2018-07-28T03:55:09.385Z,25.8
2018-07-28T03:55:59.168Z,25.8
2018-07-28T03:56:48.959Z,25.8
2018-07-28T03:57:39.573Z,25.8
2018-07-28T03:58:29.916Z,25.8
2018-07-28T03:59:20.016Z,25.8
2018-07-28T04:00:09.762Z,25.8
2018-07-28T04:00:59.811Z,25.8
2018-07-28T04:01:49.667Z,25.8
2018-07-28T04:02:39.436Z,25.8
2018-07-28T04:03:28.942Z,25.8
2018-07-28T04:04:20.268Z,25.8
2018-07-28T04:05:09.884Z,25.8
2018-07-28T04:06:00.177Z,25.8
2018-07-28T04:06:50.506Z,25.8
2018-07-28T04:07:40.591Z,25.8
2018-07-28T04:08:30.090Z,25.8
2018-07-28T04:09:20.716Z,25.8
2018-07-28T04:10:10.547Z,25.8
2018-07-28T04:11:00.288Z,25.8
2018-07-28T04:11:50.930Z,25.8
2018-07-28T04:12:40.422Z,25.8
2018-07-28T04:13:31.077Z,25.8
2018-07-28T04:14:21.419Z,25.8
2018-07-28T04:15:10.628Z,25.8
2018-07-28T04:16:01.214Z,25.8
2018-07-28T04:16:50.527Z,25.8
2018-07-28T04:17:41.379Z,25.8
2018-07-28T04:18:31.503Z,25.8
2018-07-28T04:19:21.532Z,25.8
2018-07-28T04:20:11.363Z,25.8
2018-07-28T04:21:01.164Z,25.8
2018-07-28T04:21:51.431Z,25.8
2018-07-28T04:22:41.495Z,25.8
2018-07-28T04:23:31.829Z,25.8
2018-07-28T04:24:21.899Z,25.8
2018-07-28T04:25:11.971Z,25.8
2018-07-28T04:26:02.085Z,25.8
2018-07-28T04:26:52.077Z,25.9
2018-07-28T04:27:41.874Z,25.9
2018-07-28T04:28:32.269Z,25.9
2018-07-28T04:29:22.112Z,25.9
2018-07-28T04:30:12.358Z,25.9
2018-07-28T04:31:02.437Z,26
2018-07-28T04:31:52.194Z,26
2018-07-28T04:32:42.529Z,26
2018-07-28T04:33:32.131Z,26
2018-07-28T04:34:22.697Z,26
2018-07-28T04:35:12.443Z,26
2018-07-28T04:36:02.534Z,26
2018-07-28T04:36:52.829Z,25.9
2018-07-28T04:37:42.830Z,25.9
2018-07-28T04:38:32.981Z,25.9
2018-07-28T04:39:22.002Z,25.9
2018-07-28T04:40:12.614Z,25.9
2018-07-28T04:41:03.206Z,25.9
2018-07-28T04:41:52.815Z,25.9
2018-07-28T04:42:43.271Z,25.9
2018-07-28T04:43:33.465Z,25.9
2018-07-28T04:44:22.675Z,25.9
2018-07-28T04:45:13.487Z,25.9
2018-07-28T04:46:03.540Z,25.9
2018-07-28T04:46:53.643Z,25.9
2018-07-28T04:47:43.673Z,25.9
2018-07-28T04:48:33.468Z,25.9
2018-07-28T04:49:23.257Z,25.9
2018-07-28T04:50:13.592Z,25.9
2018-07-28T04:51:03.671Z,25.9
2018-07-28T04:51:53.997Z,25.9
2018-07-28T04:52:44.084Z,25.9
2018-07-28T04:53:33.892Z,25.9
2018-07-28T04:54:23.929Z,25.9
2018-07-28T04:55:14.017Z,25.9
2018-07-28T04:56:04.091Z,25.9
2018-07-28T04:56:54.137Z,25.9
2018-07-28T04:57:44.191Z,25.9
2018-07-28T04:58:34.065Z,25.9
2018-07-28T04:59:24.312Z,25.9
2018-07-28T05:00:14.718Z,25.9
2018-07-28T05:01:04.266Z,25.8
2018-07-28T05:01:54.228Z,25.9
2018-07-28T05:02:44.309Z,25.9
2018-07-28T05:03:35.008Z,25.9
2018-07-28T05:04:24.977Z,25.8
2018-07-28T05:05:14.791Z,25.9
2018-07-28T05:06:04.838Z,25.8
2018-07-28T05:06:54.889Z,25.8
2018-07-28T05:07:46.308Z,25.9
2018-07-28T05:08:34.832Z,25.8
2018-07-28T05:09:24.807Z,25.9
2018-07-28T05:10:15.479Z,25.8
2018-07-28T05:11:05.239Z,25.8
2018-07-28T05:11:55.268Z,25.9
2018-07-28T05:12:45.339Z,25.8
2018-07-28T05:13:35.106Z,25.8
2018-07-28T05:14:25.445Z,25.8
2018-07-28T05:15:15.515Z,25.8
2018-07-28T05:16:05.820Z,25.8
2018-07-28T05:16:55.927Z,25.8
2018-07-28T05:17:45.972Z,25.8
2018-07-28T05:18:35.496Z,25.8
2018-07-28T05:19:25.854Z,25.8
2018-07-28T05:20:15.906Z,25.8
2018-07-28T05:21:05.978Z,25.8
2018-07-28T05:21:56.325Z,25.8
2018-07-28T05:22:46.097Z,25.8
2018-07-28T05:23:36.544Z,25.8
2018-07-28T05:24:26.524Z,25.8
2018-07-28T05:25:16.547Z,25.8
2018-07-28T05:26:06.327Z,25.8
2018-07-28T05:26:56.682Z,25.8
2018-07-28T05:27:46.786Z,25.8
2018-07-28T05:28:36.297Z,25.8
2018-07-28T05:29:26.921Z,25.8
2018-07-28T05:30:16.714Z,25.8
2018-07-28T05:31:06.762Z,25.8
2018-07-28T05:31:56.543Z,25.8
2018-07-28T05:32:47.161Z,25.8
2018-07-28T05:33:36.944Z,25.8
2018-07-28T05:34:27.060Z,25.8
2018-07-28T05:35:16.835Z,25.8
2018-07-28T05:36:07.448Z,25.8
2018-07-28T05:36:57.237Z,25.8
2018-07-28T05:37:47.296Z,25.8
2018-07-28T05:38:37.608Z,25.8
2018-07-28T05:39:27.172Z,25.8
2018-07-28T05:40:17.737Z,25.8
2018-07-28T05:41:07.823Z,25.8
2018-07-28T05:41:57.890Z,25.8
2018-07-28T05:42:47.939Z,25.8
2018-07-28T05:43:38.005Z,25.8
2018-07-28T05:44:27.537Z,25.7
2018-07-28T05:45:18.125Z,25.7
2018-07-28T05:46:08.229Z,25.8
2018-07-28T05:46:57.980Z,25.7
2018-07-28T05:47:48.338Z,25.7
2018-07-28T05:48:38.074Z,25.7
2018-07-28T05:49:28.198Z,25.7
2018-07-28T05:50:18.925Z,25.7
2018-07-28T05:51:08.089Z,25.7
2018-07-28T05:51:58.641Z,25.7
2018-07-28T05:52:48.699Z,25.7
2018-07-28T05:53:38.212Z,25.7
2018-07-28T05:54:28.819Z,25.7
2018-07-28T05:55:18.912Z,25.7
2018-07-28T05:56:08.943Z,25.7
2018-07-28T05:56:58.734Z,25.7
2018-07-28T05:57:48.827Z,25.7
2018-07-28T05:58:38.651Z,25.7
2018-07-28T05:59:28.909Z,25.7
2018-07-28T06:00:19.068Z,25.7
2018-07-28T06:01:09.025Z,25.7
2018-07-28T06:01:59.134Z,25.7
2018-07-28T06:02:49.866Z,25.7
2018-07-28T06:03:39.511Z,25.7
2018-07-28T06:04:28.844Z,25.7
2018-07-28T06:05:19.431Z,25.6
2018-07-28T06:06:09.755Z,25.7
2018-07-28T06:06:59.242Z,25.7
2018-07-28T06:07:49.871Z,25.7
2018-07-28T06:08:39.663Z,25.6
2018-07-28T06:09:29.728Z,25.6
2018-07-28T06:10:19.800Z,25.6
2018-07-28T06:11:09.885Z,25.6
2018-07-28T06:12:00.208Z,25.6
2018-07-28T06:12:49.436Z,25.6
2018-07-28T06:13:39.853Z,25.6
2018-07-28T06:14:30.422Z,25.6
2018-07-28T06:15:20.453Z,25.6
2018-07-28T06:16:10.267Z,25.6
2018-07-28T06:17:00.313Z,25.6
2018-07-28T06:17:50.655Z,25.6
2018-07-28T06:18:40.229Z,25.6
2018-07-28T06:19:30.288Z,25.6
2018-07-28T06:20:21.545Z,25.6
2018-07-28T06:21:10.423Z,25.6
2018-07-28T06:22:01.183Z,25.6
2018-07-28T06:22:50.551Z,25.6
2018-07-28T06:23:40.331Z,25.6
2018-07-28T06:24:31.163Z,25.6
2018-07-28T06:25:20.946Z,25.6
2018-07-28T06:26:11.007Z,25.6
2018-07-28T06:27:01.366Z,25.6
2018-07-28T06:27:51.530Z,25.6
2018-07-28T06:28:41.243Z,25.6
2018-07-28T06:29:31.245Z,25.6
2018-07-28T06:30:21.320Z,25.6
2018-07-28T06:31:10.895Z,25.6
2018-07-28T06:32:02.264Z,25.6
2018-07-28T06:32:51.357Z,25.6
2018-07-28T06:33:41.827Z,25.6
2018-07-28T06:34:31.898Z,25.6
2018-07-28T06:35:21.968Z,25.6
2018-07-28T06:36:12.037Z,25.6
2018-07-28T06:37:02.102Z,25.6
2018-07-28T06:37:51.897Z,25.6
2018-07-28T06:38:41.988Z,25.6
2018-07-28T06:39:32.207Z,25.6
2018-07-28T06:40:22.355Z,25.6
2018-07-28T06:41:12.420Z,25.6
2018-07-28T06:42:02.527Z,25.6
2018-07-28T06:42:52.280Z,25.6
2018-07-28T06:43:42.389Z,25.6
2018-07-28T06:44:32.717Z,25.6
2018-07-28T06:45:22.260Z,25.6
2018-07-28T06:46:12.593Z,25.6
2018-07-28T06:47:02.329Z,25.6
2018-07-28T06:47:52.972Z,25.6
2018-07-28T06:48:43.039Z,25.5
2018-07-28T06:49:32.912Z,25.6
2018-07-28T06:50:23.185Z,25.6
2018-07-28T06:51:12.946Z,25.6
2018-07-28T06:52:03.092Z,25.6
2018-07-28T06:52:53.336Z,25.6
2018-07-28T06:53:43.540Z,25.5
2018-07-28T06:54:33.483Z,25.6
2018-07-28T06:55:23.268Z,25.6
2018-07-28T06:56:13.595Z,25.5
2018-07-28T06:57:03.420Z,25.5
2018-07-28T06:57:53.719Z,25.5
2018-07-28T06:58:43.997Z,25.5
2018-07-28T06:59:33.883Z,25.5
2018-07-28T07:00:23.654Z,25.5
2018-07-28T07:01:13.968Z,25.5
2018-07-28T07:02:03.793Z,25.5
2018-07-28T07:02:54.072Z,25.5
2018-07-28T07:03:43.878Z,25.5
2018-07-28T07:04:33.937Z,25.5
2018-07-28T07:05:23.760Z,25.5
2018-07-28T07:06:13.514Z,25.5
2018-07-28T07:07:04.183Z,25.5
2018-07-28T07:07:54.226Z,25.5
2018-07-28T07:08:44.597Z,25.5
2018-07-28T07:09:34.633Z,25.5
2018-07-28T07:10:24.390Z,25.5
2018-07-28T07:11:14.728Z,25.5
2018-07-28T07:12:04.821Z,25.5
2018-07-28T07:12:54.589Z,25.5
2018-07-28T07:13:44.939Z,25.5
2018-07-28T07:14:34.752Z,25.5
2018-07-28T07:15:24.808Z,25.5
2018-07-28T07:16:15.126Z,25.5
2018-07-28T07:17:04.980Z,25.5
2018-07-28T07:17:55.306Z,25.5
2018-07-28T07:18:45.369Z,25.5
2018-07-28T07:19:35.426Z,25.6
2018-07-28T07:20:25.501Z,25.5
2018-07-28T07:21:15.530Z,25.5
2018-07-28T07:22:05.332Z,25.5
2018-07-28T07:22:55.699Z,25.5
2018-07-28T07:23:44.920Z,25.5
2018-07-28T07:24:35.802Z,25.5
2018-07-28T07:25:25.300Z,25.5
2018-07-28T07:26:15.916Z,25.5
2018-07-28T07:27:05.970Z,25.6
2018-07-28T07:27:56.057Z,39.5
2018-07-28T07:28:45.851Z,55.2
2018-07-28T07:29:36.184Z,57.3
2018-07-28T07:30:25.639Z,55.7
2018-07-28T07:31:16.037Z,54.8
2018-07-28T07:32:06.092Z,54.1
2018-07-28T07:32:56.492Z,53.6
2018-07-28T07:33:45.954Z,52.9
2018-07-28T07:34:36.552Z,52.3
2018-07-28T07:35:26.621Z,51.6
2018-07-28T07:36:17.013Z,51
2018-07-28T07:37:06.719Z,50.4
2018-07-28T07:37:56.241Z,49.8
2018-07-28T07:38:46.858Z,49.2
2018-07-28T07:39:36.641Z,48.6
2018-07-28T07:40:27.022Z,48.1
2018-07-28T07:41:17.047Z,47.6
2018-07-28T07:42:07.117Z,47
2018-07-28T07:42:57.179Z,46.5
2018-07-28T07:43:46.733Z,46.1
2018-07-28T07:44:37.060Z,45.6
2018-07-28T07:45:27.298Z,45.1
2018-07-28T07:46:17.172Z,44.6
2018-07-28T07:47:07.046Z,44.2
2018-07-28T07:47:57.622Z,43.8
2018-07-28T07:48:47.365Z,43.3
2018-07-28T07:49:37.164Z,42.9
2018-07-28T07:50:27.529Z,42.6
2018-07-28T07:51:17.580Z,42.2
2018-07-28T07:52:07.368Z,41.8
2018-07-28T07:52:57.964Z,41.5
2018-07-28T07:53:47.713Z,41.1
2018-07-28T07:54:38.164Z,40.8
2018-07-28T07:55:27.612Z,40.5
2018-07-28T07:56:17.195Z,40.1
2018-07-28T07:57:08.040Z,42.5
2018-07-28T07:57:58.422Z,47.9
2018-07-28T07:58:48.479Z,58.5
2018-07-28T07:59:38.511Z,60.1
2018-07-28T08:00:28.309Z,59
2018-07-28T08:01:18.082Z,56.5
2018-07-28T08:02:08.439Z,54.1
2018-07-28T08:02:58.747Z,52.8
2018-07-28T08:03:48.262Z,51.8
2018-07-28T08:04:38.614Z,51.2
2018-07-28T08:05:28.967Z,50.6
2018-07-28T08:06:19.187Z,50.1
2018-07-28T08:07:09.077Z,49.6
2018-07-28T08:07:59.133Z,49.1
2018-07-28T08:08:49.209Z,48.6
2018-07-28T08:09:38.797Z,48
2018-07-28T08:10:29.366Z,47.5
2018-07-28T08:11:19.366Z,47
2018-07-28T08:12:08.883Z,47.5
2018-07-28T08:12:58.969Z,49.8
2018-07-28T08:13:49.056Z,59.4
2018-07-28T08:14:38.781Z,63.2
2018-07-28T08:15:29.178Z,62.9
2018-07-28T08:16:18.945Z,60.6
2018-07-28T08:17:08.797Z,58.1
2018-07-28T08:17:59.666Z,56.1
2018-07-28T08:18:49.716Z,56.2
2018-07-28T08:19:40.023Z,58.1
2018-07-28T08:20:30.136Z,60.1
2018-07-28T08:21:19.891Z,61.3
2018-07-28T08:22:09.950Z,61.6
2018-07-28T08:23:00.285Z,61.3
2018-07-28T08:23:49.967Z,60.6
2018-07-28T08:24:39.845Z,60.4
2018-07-28T08:25:30.466Z,60.5
2018-07-28T08:26:20.562Z,60.1
2018-07-28T08:27:10.341Z,59.9
2018-07-28T08:28:00.136Z,60.3
2018-07-28T08:28:50.470Z,60.4
2018-07-28T08:29:40.849Z,59.5
2018-07-28T08:30:30.138Z,58.3
2018-07-28T08:31:20.969Z,57.2
2018-07-28T08:32:11.030Z,56.9
2018-07-28T08:33:01.106Z,57.8
2018-07-28T08:33:51.174Z,59.1
2018-07-28T08:34:40.653Z,60.3
2018-07-28T08:35:31.005Z,60.9
2018-07-28T08:36:21.059Z,61.1
2018-07-28T08:37:11.412Z,60.9
2018-07-28T08:38:01.302Z,60.9
2018-07-28T08:38:51.559Z,61.1
2018-07-28T08:39:41.130Z,61.5
2018-07-28T08:40:31.675Z,62.1
2018-07-28T08:41:21.735Z,62.6
2018-07-28T08:42:11.522Z,62.9
2018-07-28T08:43:01.580Z,63.2
2018-07-28T08:43:51.958Z,63.3
2018-07-28T08:44:41.951Z,63.5
2018-07-28T08:45:31.467Z,63.8
2018-07-28T08:46:22.118Z,64.1
2018-07-28T08:47:11.732Z,64.5
2018-07-28T08:48:01.495Z,64.8
2018-07-28T08:48:52.819Z,64.9
2018-07-28T08:49:43.018Z,65.1
2018-07-28T08:50:32.479Z,65.3
2018-07-28T08:51:22.541Z,65.4
2018-07-28T08:52:12.578Z,65.7
2018-07-28T08:53:02.393Z,65.9
2018-07-28T08:53:51.884Z,66.2
2018-07-28T08:54:42.859Z,66.4
2018-07-28T08:55:33.524Z,66.8
2018-07-28T08:56:22.922Z,67
2018-07-28T08:57:12.447Z,67.3
2018-07-28T08:58:03.053Z,67.6
2018-07-28T08:58:53.118Z,67.9
2018-07-28T08:59:42.899Z,67.4
2018-07-28T09:00:33.227Z,65.9
2018-07-28T09:01:23.056Z,64.4
2018-07-28T09:02:13.359Z,63.9
2018-07-28T09:03:02.636Z,64.6
2018-07-28T09:03:53.504Z,65.8
2018-07-28T09:04:43.572Z,66.9
2018-07-28T09:05:33.347Z,67.6
2018-07-28T09:06:23.698Z,67.7
2018-07-28T09:07:13.744Z,67.4
2018-07-28T09:08:03.801Z,67.3
2018-07-28T09:08:53.313Z,67.4
2018-07-28T09:09:43.381Z,67.8
2018-07-28T09:10:34.046Z,68.4
2018-07-28T09:11:23.514Z,68.7
2018-07-28T09:12:13.565Z,68.1
2018-07-28T09:13:04.220Z,67.3
2018-07-28T09:13:53.244Z,67.5
2018-07-28T09:14:44.018Z,68
2018-07-28T09:15:33.819Z,68.6
2018-07-28T09:16:24.856Z,68.5
2018-07-28T09:17:14.251Z,67.4
2018-07-28T09:18:05.033Z,67
2018-07-28T09:18:54.106Z,67.1
2018-07-28T09:19:44.465Z,66.4
2018-07-28T09:20:34.512Z,65.4
2018-07-28T09:21:24.312Z,65.3
2018-07-28T09:22:14.627Z,65.7
2018-07-28T09:23:05.013Z,66.3
2018-07-28T09:23:54.780Z,66.9
2018-07-28T09:24:45.132Z,67.6
2018-07-28T09:25:35.231Z,67.9
2018-07-28T09:26:25.261Z,67.9
2018-07-28T09:27:15.314Z,67.9
2018-07-28T09:28:05.400Z,67.9
2018-07-28T09:28:54.962Z,68.1
2018-07-28T09:29:45.236Z,68.4
2018-07-28T09:30:35.513Z,68.8
2018-07-28T09:31:25.367Z,69.1
2018-07-28T09:32:15.412Z,69.2
2018-07-28T09:33:05.791Z,69.4
2018-07-28T09:33:55.829Z,69.4
2018-07-28T09:34:45.891Z,69.6
2018-07-28T09:35:35.980Z,69.7
2018-07-28T09:36:26.046Z,69.9
2018-07-28T09:37:16.100Z,70.1
2018-07-28T09:38:05.877Z,70.3
2018-07-28T09:38:56.256Z,70.4
2018-07-28T09:39:46.032Z,70.6
2018-07-28T09:40:36.353Z,70.7
2018-07-28T09:41:26.387Z,70.8
2018-07-28T09:42:16.195Z,70.9
2018-07-28T09:43:05.988Z,71
2018-07-28T09:43:56.592Z,71.1
2018-07-28T09:44:46.675Z,71.2
2018-07-28T09:45:36.468Z,71.3
2018-07-28T09:46:27.429Z,71.4
2018-07-28T09:47:16.883Z,71.4
2018-07-28T09:48:06.660Z,71.6
2018-07-28T09:48:56.975Z,71.6
2018-07-28T09:49:46.789Z,71.8
2018-07-28T09:50:36.545Z,71.8
2018-07-28T09:51:26.899Z,71.9
2018-07-28T09:52:16.680Z,72
2018-07-28T09:53:06.720Z,72.1
2018-07-28T09:53:57.407Z,72.1
2018-07-28T09:54:47.205Z,72.2
2018-07-28T09:55:37.536Z,72.3
2018-07-28T09:56:27.599Z,72.3
2018-07-28T09:57:17.668Z,72.4
2018-07-28T09:58:07.457Z,72.4
2018-07-28T09:58:57.791Z,72.6
2018-07-28T09:59:47.290Z,72.7
2018-07-28T10:00:37.935Z,72.8
2018-07-28T10:01:27.801Z,72.9
2018-07-28T10:02:18.059Z,72.9
2018-07-28T10:03:08.114Z,72.9
2018-07-28T10:03:57.953Z,72.9
2018-07-28T10:04:47.970Z,73
2018-07-28T10:05:39.208Z,73.1
2018-07-28T10:06:28.088Z,73.2
2018-07-28T10:07:18.447Z,73.3
2018-07-28T10:08:08.502Z,73.3
2018-07-28T10:08:58.298Z,73.4
2018-07-28T10:09:48.081Z,73.4
2018-07-28T10:10:38.129Z,73.6
2018-07-28T10:11:28.753Z,73.6
2018-07-28T10:12:18.843Z,73.6
2018-07-28T10:13:08.878Z,73.7
2018-07-28T10:13:58.669Z,73.8
2018-07-28T10:14:48.742Z,73.9
2018-07-28T10:15:39.083Z,73.9
2018-07-28T10:16:28.594Z,73.9
2018-07-28T10:17:19.206Z,73.9
2018-07-28T10:18:09.267Z,74
2018-07-28T10:18:59.214Z,74.1
2018-07-28T10:19:49.388Z,74.1
2018-07-28T10:20:39.457Z,74.2
2018-07-28T10:21:29.246Z,74.2
2018-07-28T10:22:19.577Z,74.3
2018-07-28T10:23:08.820Z,74.2
2018-07-28T10:23:59.462Z,74.3
2018-07-28T10:24:49.627Z,74.3
2018-07-28T10:25:39.569Z,74.3
2018-07-28T10:26:29.918Z,74.4
2018-07-28T10:27:19.746Z,74.4
2018-07-28T10:28:10.122Z,74.4
2018-07-28T10:29:00.167Z,74.2
2018-07-28T10:29:50.180Z,72.6
2018-07-28T10:30:40.232Z,71.3
2018-07-28T10:31:30.021Z,70.1
2018-07-28T10:32:20.351Z,69.6
2018-07-28T10:33:09.873Z,70.5
2018-07-28T10:34:00.220Z,71.8
2018-07-28T10:34:50.789Z,72.8
2018-07-28T10:35:40.392Z,73.3
2018-07-28T10:36:31.936Z,73.3
2018-07-28T10:37:20.249Z,73.1
2018-07-28T10:38:10.892Z,72.8
2018-07-28T10:39:00.669Z,72.9
2018-07-28T10:39:50.712Z,73.1
2018-07-28T10:40:41.032Z,73.5
2018-07-28T10:41:30.867Z,73.8
2018-07-28T10:42:20.648Z,74
2018-07-28T10:43:11.307Z,74.1
2018-07-28T10:44:01.299Z,74.1
2018-07-28T10:44:51.095Z,74.1
2018-07-28T10:45:42.267Z,74.1
2018-07-28T10:46:31.482Z,74.3
2018-07-28T10:47:21.309Z,74.4
2018-07-28T10:48:11.650Z,74.5
2018-07-28T10:49:01.421Z,74.6
2018-07-28T10:49:51.761Z,74.6
2018-07-28T10:50:41.566Z,74.6
2018-07-28T10:51:31.600Z,74.6
2018-07-28T10:52:21.910Z,74.5
2018-07-28T10:53:11.726Z,74.6
2018-07-28T10:54:02.065Z,74.7
2018-07-28T10:54:52.140Z,74.8
2018-07-28T10:55:41.674Z,74.8
2018-07-28T10:56:31.999Z,74.8
2018-07-28T10:57:22.054Z,74.9
2018-07-28T10:58:11.847Z,74.9
2018-07-28T10:59:02.470Z,74.9
2018-07-28T10:59:52.540Z,75
2018-07-28T11:00:42.588Z,75.1
2018-07-28T11:01:32.089Z,75.1
2018-07-28T11:02:22.719Z,75.2
2018-07-28T11:03:12.209Z,75.3
2018-07-28T11:04:02.629Z,75.3
2018-07-28T11:04:52.356Z,75.3
2018-07-28T11:05:42.703Z,75.3
2018-07-28T11:06:32.481Z,75.1
2018-07-28T11:07:22.820Z,75.1
2018-07-28T11:08:12.597Z,75.1
2018-07-28T11:09:03.321Z,75.2
2018-07-28T11:09:53.057Z,75.1